createdAt,value
2022-09-29T00:01:07.417Z,9.77
2022-09-29T00:03:35.765Z,8.77
2022-09-29T00:06:03.752Z,9.77
2022-09-29T00:08:32.554Z,7.63
2022-09-29T00:11:01.906Z,9.93
2022-09-29T00:13:29.901Z,9.68
2022-09-29T00:15:59.459Z,10.80
2022-09-29T00:18:28.013Z,10.52
2022-09-29T00:21:01.160Z,9.50
2022-09-29T00:23:29.975Z,8.68
2022-09-29T00:26:08.193Z,9.80
2022-09-29T00:28:38.049Z,9.07
2022-09-29T00:31:07.860Z,9.55
2022-09-29T00:33:37.956Z,11.55
2022-09-29T00:36:12.490Z,11.63
2022-09-29T00:38:41.615Z,11.20
2022-09-29T00:41:18.110Z,12.07
2022-09-29T00:43:56.978Z,9.63
2022-09-29T00:46:42.046Z,13.55
2022-09-29T00:49:20.032Z,10.60
2022-09-29T00:51:53.039Z,11.50
2022-09-29T00:54:21.682Z,10.63
2022-09-29T00:56:51.565Z,12.57
2022-09-29T00:59:28.111Z,10.85
2022-09-29T01:01:56.320Z,9.80
2022-09-29T01:04:24.731Z,9.38
2022-09-29T01:06:56.940Z,9.02
2022-09-29T01:09:29.234Z,12.88
2022-09-29T01:12:00.976Z,11.15
2022-09-29T01:14:31.473Z,14.98
2022-09-29T01:16:59.573Z,13.85
2022-09-29T01:19:34.910Z,10.55
2022-09-29T01:22:15.058Z,10.18
2022-09-29T01:25:19.270Z,10.63
2022-09-29T01:28:24.750Z,10.93
2022-09-29T01:31:12.623Z,12.05
2022-09-29T01:33:45.495Z,12.30
2022-09-29T01:36:25.360Z,12.90
2022-09-29T01:39:03.052Z,17.50
2022-09-29T01:41:39.572Z,12.68
2022-09-29T01:44:14.090Z,10.90
2022-09-29T01:46:49.085Z,13.98
2022-09-29T01:49:19.968Z,13.93
2022-09-29T01:51:54.207Z,11.98
2022-09-29T01:54:30.498Z,13.95
2022-09-29T01:57:07.372Z,13.65
2022-09-29T01:59:42.616Z,11.13
2022-09-29T02:02:16.216Z,15.20
2022-09-29T02:07:19.864Z,12.80
2022-09-29T02:09:54.006Z,13.32
2022-09-29T02:12:26.575Z,10.20
2022-09-29T02:14:56.457Z,15.00
2022-09-29T02:17:30.694Z,18.10
2022-09-29T02:19:58.595Z,13.73
2022-09-29T02:22:26.566Z,15.07
2022-09-29T02:24:59.089Z,18.33
2022-09-29T02:27:28.686Z,11.57
2022-09-29T02:29:58.649Z,16.88
2022-09-29T02:32:28.713Z,16.52
2022-09-29T02:34:57.767Z,16.40
2022-09-29T02:37:48.164Z,23.73
2022-09-29T02:40:36.706Z,18.55
2022-09-29T02:43:21.372Z,17.27
2022-09-29T02:46:00.007Z,15.60
2022-09-29T02:48:56.506Z,16.05
2022-09-29T02:51:30.349Z,14.95
2022-09-29T02:54:08.510Z,17.77
2022-09-29T02:56:42.771Z,19.40
2022-09-29T02:59:14.693Z,14.25
2022-09-29T03:01:51.164Z,18.20
2022-09-29T03:04:22.389Z,17.98
2022-09-29T03:06:50.458Z,18.95
2022-09-29T03:09:18.913Z,22.27
2022-09-29T03:11:47.244Z,17.30
2022-09-29T03:14:15.338Z,16.40
2022-09-29T03:16:43.745Z,20.23
2022-09-29T03:19:13.419Z,16.67
2022-09-29T03:21:42.677Z,21.48
2022-09-29T03:24:10.579Z,18.23
2022-09-29T03:26:38.474Z,21.45
2022-09-29T03:29:06.500Z,24.60
2022-09-29T03:31:34.478Z,26.30
2022-09-29T03:34:02.368Z,22.95
2022-09-29T03:36:30.740Z,25.60
2022-09-29T03:39:00.005Z,22.55
2022-09-29T03:41:28.023Z,23.48
2022-09-29T03:43:55.937Z,29.48
2022-09-29T03:46:23.860Z,26.30
2022-09-29T03:48:51.795Z,28.40
2022-09-29T03:51:19.790Z,32.13
2022-09-29T03:53:47.662Z,30.85
2022-09-29T03:56:16.914Z,32.63
2022-09-29T03:58:44.786Z,28.42
2022-09-29T04:01:12.928Z,32.47
2022-09-29T04:03:41.790Z,30.13
2022-09-29T04:06:09.721Z,30.42
2022-09-29T04:08:38.128Z,27.65
2022-09-29T04:11:06.455Z,29.88
2022-09-29T04:13:35.886Z,26.58
2022-09-29T04:16:06.539Z,25.00
2022-09-29T04:18:34.636Z,24.08
2022-09-29T04:21:06.813Z,30.75
2022-09-29T04:23:35.706Z,31.95
2022-09-29T04:26:04.238Z,31.63
2022-09-29T04:28:32.897Z,27.98
2022-09-29T04:31:02.209Z,29.25
2022-09-29T04:33:31.270Z,31.75
2022-09-29T04:35:59.238Z,29.35
2022-09-29T04:38:27.512Z,26.45
2022-09-29T04:40:55.522Z,34.65
2022-09-29T04:43:23.558Z,29.38
2022-09-29T04:45:51.558Z,36.40
2022-09-29T04:48:21.018Z,36.20
2022-09-29T04:50:49.498Z,36.08
2022-09-29T04:53:18.396Z,27.73
2022-09-29T04:55:46.327Z,30.92
2022-09-29T04:58:14.924Z,32.22
2022-09-29T05:00:42.994Z,34.03
2022-09-29T05:03:11.155Z,28.75
2022-09-29T05:05:41.440Z,33.80
2022-09-29T05:08:09.606Z,33.42
2022-09-29T05:10:37.476Z,35.33
2022-09-29T05:13:05.351Z,33.88
2022-09-29T05:15:33.286Z,35.38
2022-09-29T05:18:03.187Z,37.17
2022-09-29T05:20:39.956Z,37.30
2022-09-29T05:23:12.400Z,30.58
2022-09-29T05:25:40.852Z,44.15
2022-09-29T05:28:09.434Z,35.72
2022-09-29T05:30:37.663Z,41.55
2022-09-29T05:33:06.065Z,38.65
2022-09-29T05:35:33.984Z,43.72
2022-09-29T05:38:01.916Z,39.10
2022-09-29T05:40:31.151Z,41.60
2022-09-29T05:43:00.545Z,42.83
2022-09-29T05:45:29.035Z,44.70
2022-09-29T05:47:57.311Z,38.85
2022-09-29T05:50:25.228Z,40.22
2022-09-29T05:52:53.206Z,41.90
2022-09-29T05:55:21.066Z,43.63
2022-09-29T05:57:50.741Z,43.63
2022-09-29T06:00:18.713Z,45.60
2022-09-29T06:02:46.602Z,43.85
2022-09-29T06:05:14.529Z,44.42
2022-09-29T06:07:42.523Z,44.17
2022-09-29T06:10:10.766Z,43.50
2022-09-29T06:12:38.922Z,40.22
2022-09-29T06:15:09.097Z,50.70
2022-09-29T06:17:37.047Z,47.25
2022-09-29T06:20:06.906Z,51.97
2022-09-29T06:22:35.213Z,49.13
2022-09-29T06:25:03.194Z,49.20
2022-09-29T06:27:31.145Z,45.08
2022-09-29T06:29:59.912Z,37.28
2022-09-29T06:32:29.541Z,39.72
2022-09-29T06:35:14.964Z,39.25
2022-09-29T06:37:46.402Z,35.10
2022-09-29T06:40:14.957Z,37.88
2022-09-29T06:42:42.961Z,32.03
2022-09-29T06:45:12.233Z,36.92
2022-09-29T06:47:41.533Z,35.70
2022-09-29T06:50:17.438Z,32.33
2022-09-29T06:53:01.584Z,29.40
2022-09-29T06:55:31.614Z,30.65
2022-09-29T06:58:03.697Z,31.00
2022-09-29T07:00:32.821Z,29.55
2022-09-29T07:03:02.454Z,27.02
2022-09-29T07:05:31.529Z,30.38
2022-09-29T07:08:01.214Z,28.45
2022-09-29T07:10:29.466Z,30.63
2022-09-29T07:12:57.395Z,30.08
2022-09-29T07:15:31.418Z,26.75
2022-09-29T07:18:00.002Z,26.88
2022-09-29T07:20:30.496Z,28.50
2022-09-29T07:22:58.752Z,30.48
2022-09-29T07:25:49.997Z,27.83
2022-09-29T07:28:14.946Z,25.95
2022-09-29T07:30:42.889Z,21.55
2022-09-29T07:33:10.812Z,29.08
2022-09-29T07:35:40.382Z,21.13
2022-09-29T07:38:08.513Z,23.92
2022-09-29T07:40:36.667Z,25.58
2022-09-29T07:43:04.606Z,31.95
2022-09-29T07:45:33.039Z,22.77
2022-09-29T07:48:01.276Z,29.30
2022-09-29T07:50:29.291Z,24.88
2022-09-29T07:52:58.588Z,19.48
2022-09-29T07:55:27.532Z,18.40
2022-09-29T07:57:56.803Z,23.15
2022-09-29T08:00:24.730Z,20.42
2022-09-29T08:02:52.741Z,22.15
2022-09-29T08:05:21.369Z,19.75
2022-09-29T08:07:52.452Z,21.10
2022-09-29T08:10:23.051Z,17.70
2022-09-29T08:12:50.959Z,19.15
2022-09-29T08:15:18.978Z,23.98
2022-09-29T08:17:46.939Z,25.20
2022-09-29T08:20:15.352Z,19.40
2022-09-29T08:22:43.434Z,20.10
2022-09-29T08:25:12.051Z,19.02
2022-09-29T08:27:52.410Z,16.27
2022-09-29T08:30:22.222Z,19.70
2022-09-29T08:32:52.792Z,15.70
2022-09-29T08:35:21.031Z,17.20
2022-09-29T08:37:49.086Z,15.93
2022-09-29T08:40:17.989Z,16.70
2022-09-29T08:42:58.092Z,15.75
2022-09-29T08:45:31.699Z,15.23
2022-09-29T08:48:19.203Z,22.23
2022-09-29T08:50:56.845Z,12.93
2022-09-29T08:53:29.427Z,15.30
2022-09-29T08:56:01.273Z,16.40
2022-09-29T08:58:32.055Z,14.05
2022-09-29T09:01:11.763Z,12.82
2022-09-29T09:03:56.417Z,13.95
2022-09-29T09:06:32.386Z,15.38
2022-09-29T09:09:26.803Z,13.23
2022-09-29T09:12:19.615Z,15.18
2022-09-29T09:15:01.313Z,12.43
2022-09-29T09:17:51.756Z,13.40
2022-09-29T09:20:33.214Z,13.23
2022-09-29T09:23:02.870Z,13.65
2022-09-29T09:25:32.985Z,11.63
2022-09-29T09:28:06.113Z,10.82
2022-09-29T09:30:43.260Z,9.77
2022-09-29T09:33:30.101Z,10.48
2022-09-29T09:36:04.761Z,10.77
2022-09-29T09:38:46.172Z,10.85
2022-09-29T09:41:18.625Z,11.30
2022-09-29T09:43:50.502Z,32.03
2022-09-29T09:46:25.443Z,10.75
2022-09-29T09:49:02.713Z,28.40
2022-09-29T09:51:38.897Z,11.30
2022-09-29T09:54:15.502Z,10.40
2022-09-29T09:57:19.005Z,17.25
2022-09-29T10:00:00.211Z,9.68
2022-09-29T10:02:32.022Z,10.57
2022-09-29T10:05:00.232Z,9.85
2022-09-29T10:07:31.415Z,13.57
2022-09-29T10:10:04.825Z,14.20
2022-09-29T10:12:33.192Z,10.40
2022-09-29T10:15:06.674Z,11.07
2022-09-29T10:17:43.260Z,9.00
2022-09-29T10:20:11.785Z,12.52
2022-09-29T10:22:39.981Z,6.47
2022-09-29T10:25:16.272Z,8.35
2022-09-29T10:27:46.579Z,7.30
2022-09-29T10:30:24.069Z,10.32
2022-09-29T10:32:59.516Z,6.78
2022-09-29T10:35:29.961Z,8.43
2022-09-29T10:38:03.157Z,10.82
2022-09-29T10:42:59.433Z,6.10
2022-09-29T10:45:32.265Z,6.15
2022-09-29T10:48:15.267Z,5.95
2022-09-29T10:50:52.399Z,6.82
2022-09-29T10:53:29.394Z,6.55
2022-09-29T10:55:58.848Z,6.07
2022-09-29T11:01:22.725Z,6.35
2022-09-29T11:04:01.331Z,7.03
2022-09-29T11:06:31.594Z,9.25
2022-09-29T11:09:01.945Z,8.55
2022-09-29T11:11:32.407Z,7.90
2022-09-29T11:14:00.825Z,9.00
2022-09-29T11:16:32.474Z,7.60
2022-09-29T11:19:06.573Z,7.20
2022-09-29T11:22:03.085Z,6.65
2022-09-29T11:25:06.062Z,5.45
2022-09-29T11:27:46.896Z,6.30
2022-09-29T11:30:20.395Z,5.82
2022-09-29T11:33:11.173Z,4.78
2022-09-29T11:35:52.529Z,3.22
2022-09-29T11:38:32.376Z,4.32
2022-09-29T11:41:11.716Z,6.82
2022-09-29T11:43:48.012Z,8.50
2022-09-29T11:46:32.162Z,10.50
2022-09-29T11:49:15.667Z,6.82
2022-09-29T11:52:00.431Z,6.60
2022-09-29T11:54:45.518Z,6.10
2022-09-29T11:57:20.555Z,7.15
2022-09-29T12:00:03.718Z,7.18
2022-09-29T12:03:17.643Z,6.93
2022-09-29T12:05:55.089Z,6.95
2022-09-29T12:08:37.280Z,5.10
2022-09-29T12:11:37.251Z,5.15
2022-09-29T12:16:33.366Z,6.38
2022-09-29T12:19:07.021Z,6.47
2022-09-29T12:21:40.818Z,6.60
2022-09-29T12:24:15.706Z,4.55
2022-09-29T12:26:45.903Z,6.38
2022-09-29T12:29:21.813Z,6.28
2022-09-29T12:31:53.417Z,5.10
2022-09-29T12:34:31.677Z,5.72
2022-09-29T12:37:07.697Z,5.88
2022-09-29T12:39:45.013Z,6.57
2022-09-29T12:42:33.485Z,5.28
2022-09-29T12:45:11.008Z,5.72
2022-09-29T12:48:02.668Z,4.68
2022-09-29T12:50:34.454Z,4.63
2022-09-29T12:53:10.796Z,4.68
2022-09-29T12:55:47.621Z,5.32
2022-09-29T12:58:22.771Z,7.85
2022-09-29T13:00:56.428Z,6.15
2022-09-29T13:04:03.818Z,5.20
2022-09-29T13:06:56.976Z,6.03
2022-09-29T13:09:41.197Z,5.47
2022-09-29T13:12:38.952Z,3.75
2022-09-29T13:15:27.161Z,4.82
2022-09-29T13:18:13.122Z,4.25
2022-09-29T13:20:55.853Z,4.88
2022-09-29T13:23:39.596Z,5.75
2022-09-29T13:26:24.104Z,4.95
2022-09-29T13:28:56.556Z,4.30
2022-09-29T13:31:33.354Z,6.28
2022-09-29T13:34:05.824Z,4.57
2022-09-29T13:36:36.298Z,4.50
2022-09-29T13:39:07.469Z,4.20
2022-09-29T13:41:38.945Z,3.63
2022-09-29T13:44:26.322Z,5.32
2022-09-29T13:46:56.124Z,4.90
2022-09-29T13:49:31.685Z,4.05
2022-09-29T13:54:37.778Z,5.53
2022-09-29T13:57:28.471Z,5.43
2022-09-29T14:00:29.331Z,4.03
2022-09-29T14:03:06.554Z,3.63
2022-09-29T14:05:40.864Z,3.20
2022-09-29T14:08:17.109Z,3.88
2022-09-29T14:10:49.617Z,3.42
2022-09-29T14:13:25.147Z,4.25
2022-09-29T14:16:12.026Z,2.78
2022-09-29T14:18:46.656Z,4.13
2022-09-29T14:21:35.768Z,4.80
2022-09-29T14:24:05.552Z,5.05
2022-09-29T14:26:45.141Z,4.10
2022-09-29T14:29:18.835Z,4.55
2022-09-29T14:31:51.513Z,4.75
2022-09-29T14:34:23.327Z,4.57
2022-09-29T14:36:56.310Z,5.80
2022-09-29T14:39:27.541Z,4.85
2022-09-29T14:41:57.009Z,3.15
2022-09-29T14:44:27.674Z,5.00
2022-09-29T14:47:31.009Z,5.28
2022-09-29T14:50:33.152Z,5.80
2022-09-29T14:53:15.099Z,6.68
2022-09-29T14:56:00.070Z,3.80
2022-09-29T14:58:42.066Z,4.53
2022-09-29T15:01:16.926Z,4.70
2022-09-29T15:03:47.540Z,3.83
2022-09-29T15:06:18.304Z,3.53
2022-09-29T15:08:55.756Z,4.15
2022-09-29T15:11:29.059Z,3.35
2022-09-29T15:16:33.555Z,3.72
2022-09-29T15:19:18.108Z,3.88
2022-09-29T15:21:56.678Z,3.53
2022-09-29T15:24:51.032Z,4.35
2022-09-29T15:27:21.711Z,2.67
2022-09-29T15:29:50.513Z,3.05
2022-09-29T15:32:23.135Z,3.30
2022-09-29T15:34:56.059Z,3.15
2022-09-29T15:39:54.349Z,2.58
2022-09-29T15:42:24.565Z,2.33
2022-09-29T15:44:56.988Z,2.08
2022-09-29T15:47:30.030Z,2.60
2022-09-29T15:49:57.986Z,2.65
2022-09-29T15:52:34.892Z,1.88
2022-09-29T15:55:02.921Z,1.88
2022-09-29T15:57:47.118Z,3.45
2022-09-29T16:00:54.544Z,2.38
2022-09-29T16:03:29.921Z,2.10
2022-09-29T16:06:07.013Z,2.70
2022-09-29T16:08:39.943Z,4.00
2022-09-29T16:11:10.121Z,2.97
2022-09-29T16:13:41.907Z,1.85
2022-09-29T16:16:12.582Z,3.42
2022-09-29T16:18:44.206Z,3.90
2022-09-29T16:21:15.026Z,5.50
2022-09-29T16:23:45.548Z,2.72
2022-09-29T16:26:18.221Z,3.50
2022-09-29T16:29:20.668Z,4.10
2022-09-29T16:31:50.429Z,4.28
2022-09-29T16:34:27.996Z,3.80
2022-09-29T16:36:58.049Z,4.60
2022-09-29T16:39:27.914Z,6.97
2022-09-29T16:41:58.691Z,8.10
2022-09-29T16:44:33.271Z,6.07
2022-09-29T16:47:04.837Z,5.80
2022-09-29T16:49:34.460Z,5.07
2022-09-29T16:52:12.397Z,5.25
2022-09-29T16:54:43.467Z,4.15
2022-09-29T16:57:25.263Z,6.28
2022-09-29T16:59:56.505Z,5.18
2022-09-29T17:02:25.616Z,5.15
2022-09-29T17:04:55.038Z,5.95
2022-09-29T17:07:25.226Z,14.70
2022-09-29T17:09:55.898Z,8.60
2022-09-29T17:12:25.202Z,8.40
2022-09-29T17:14:54.514Z,6.65
2022-09-29T17:17:24.379Z,5.40
2022-09-29T17:19:53.564Z,4.50
2022-09-29T17:22:30.358Z,6.43
2022-09-29T17:24:58.796Z,11.63
2022-09-29T17:27:45.061Z,16.70
2022-09-29T17:30:18.800Z,10.93
2022-09-29T17:32:46.944Z,5.25
2022-09-29T17:35:15.625Z,5.03
2022-09-29T17:37:46.648Z,5.32
2022-09-29T17:40:21.911Z,7.85
2022-09-29T17:42:50.034Z,5.57
2022-09-29T17:45:21.725Z,5.55
2022-09-29T17:47:50.330Z,7.78
2022-09-29T17:50:27.954Z,5.43
2022-09-29T17:52:56.208Z,6.70
2022-09-29T17:55:24.142Z,7.07
2022-09-29T17:57:53.546Z,5.40
2022-09-29T18:00:25.054Z,6.78
2022-09-29T18:02:57.039Z,5.68
2022-09-29T18:05:26.955Z,5.80
2022-09-29T18:07:56.767Z,5.75
2022-09-29T18:10:28.466Z,6.53
2022-09-29T18:12:56.950Z,6.45
2022-09-29T18:15:27.007Z,8.85
2022-09-29T18:17:59.339Z,6.18
2022-09-29T18:20:30.315Z,6.72
2022-09-29T18:23:00.395Z,6.78
2022-09-29T18:25:29.849Z,6.93
2022-09-29T18:27:58.375Z,9.35
2022-09-29T18:30:30.076Z,9.27
2022-09-29T18:33:00.491Z,6.55
2022-09-29T18:35:31.316Z,8.23
2022-09-29T18:37:59.725Z,9.38
2022-09-29T18:40:29.577Z,9.23
2022-09-29T18:42:59.692Z,9.20
2022-09-29T18:45:30.922Z,10.85
2022-09-29T18:48:00.294Z,9.43
2022-09-29T18:50:30.676Z,17.88
2022-09-29T18:52:59.477Z,10.02
2022-09-29T18:55:28.373Z,9.65
2022-09-29T18:57:58.432Z,8.57
2022-09-29T19:00:31.111Z,11.07
2022-09-29T19:03:02.470Z,8.18
2022-09-29T19:05:31.976Z,9.38
2022-09-29T19:08:01.933Z,11.40
2022-09-29T19:10:32.513Z,9.68
2022-09-29T19:13:04.100Z,16.50
2022-09-29T19:15:35.631Z,8.07
2022-09-29T19:18:05.272Z,6.97
2022-09-29T19:20:33.218Z,8.93
2022-09-29T19:23:02.857Z,10.10
2022-09-29T19:25:34.014Z,8.40
2022-09-29T19:28:05.029Z,9.43
2022-09-29T19:30:38.087Z,9.75
2022-09-29T19:33:06.849Z,8.90
2022-09-29T19:35:36.315Z,10.82
2022-09-29T19:38:05.792Z,9.52
2022-09-29T19:40:37.437Z,10.23
2022-09-29T19:43:06.620Z,11.18
2022-09-29T19:45:38.112Z,14.20
2022-09-29T19:48:06.490Z,13.65
2022-09-29T19:50:52.312Z,12.45
2022-09-29T19:53:20.578Z,11.38
2022-09-29T19:55:49.065Z,11.00
2022-09-29T19:58:17.103Z,10.07
2022-09-29T20:00:46.420Z,9.65
2022-09-29T20:03:14.513Z,11.38
2022-09-29T20:05:42.611Z,12.13
2022-09-29T20:08:10.517Z,12.45
2022-09-29T20:10:41.654Z,9.00
2022-09-29T20:13:14.266Z,13.05
2022-09-29T20:15:46.509Z,11.10
2022-09-29T20:18:16.067Z,9.98
2022-09-29T20:20:43.972Z,10.02
2022-09-29T20:23:12.011Z,9.68
2022-09-29T20:25:40.014Z,12.45
2022-09-29T20:28:11.705Z,11.00
2022-09-29T20:30:42.337Z,9.35
2022-09-29T20:33:10.297Z,14.65
2022-09-29T20:35:41.118Z,9.88
2022-09-29T20:38:09.080Z,9.35
2022-09-29T20:40:36.962Z,13.00
2022-09-29T20:43:05.150Z,9.07
2022-09-29T20:45:33.168Z,10.65
2022-09-29T20:48:01.365Z,11.90
2022-09-29T20:50:30.587Z,10.75
2022-09-29T20:52:59.850Z,9.10
2022-09-29T20:55:27.782Z,9.90
2022-09-29T20:57:57.831Z,9.98
2022-09-29T21:00:26.026Z,8.68
2022-09-29T21:02:54.052Z,9.35
2022-09-29T21:05:22.055Z,9.07
2022-09-29T21:07:50.000Z,10.73
2022-09-29T21:10:19.535Z,9.45
2022-09-29T21:12:47.454Z,9.90
2022-09-29T21:15:15.611Z,8.90
2022-09-29T21:17:44.102Z,8.32
2022-09-29T21:20:12.131Z,8.77
2022-09-29T21:22:40.279Z,8.98
2022-09-29T21:25:08.891Z,8.57
2022-09-29T21:27:41.036Z,9.13
2022-09-29T21:30:11.365Z,7.43
2022-09-29T21:32:39.846Z,9.13
2022-09-29T21:35:08.823Z,8.20
2022-09-29T21:37:36.948Z,7.20
2022-09-29T21:40:05.550Z,6.45
2022-09-29T21:42:33.969Z,7.90
2022-09-29T21:45:03.805Z,8.05
2022-09-29T21:47:45.830Z,8.18
2022-09-29T21:50:13.953Z,7.72
2022-09-29T21:52:43.567Z,7.80
2022-09-29T21:55:11.682Z,8.38
2022-09-29T21:57:39.847Z,8.25
2022-09-29T22:00:10.378Z,8.50
2022-09-29T22:02:38.490Z,7.47
2022-09-29T22:05:06.810Z,6.75
2022-09-29T22:07:34.900Z,7.15
2022-09-29T22:10:02.956Z,7.30
2022-09-29T22:12:31.080Z,6.20
2022-09-29T22:14:59.160Z,6.10
2022-09-29T22:17:28.719Z,7.07
2022-09-29T22:19:56.770Z,6.80
2022-09-29T22:22:24.912Z,5.82
2022-09-29T22:24:52.955Z,7.20
2022-09-29T22:27:21.080Z,6.97
2022-09-29T22:29:49.116Z,7.75
2022-09-29T22:32:17.544Z,7.90
2022-09-29T22:34:47.002Z,6.10
2022-09-29T22:37:15.106Z,6.68
2022-09-29T22:39:43.226Z,8.10
2022-09-29T22:42:12.031Z,6.75
2022-09-29T22:44:40.115Z,7.18
2022-09-29T22:47:08.366Z,10.73
2022-09-29T22:49:36.450Z,7.03
2022-09-29T22:52:06.274Z,6.35
2022-09-29T22:54:34.454Z,7.35
2022-09-29T22:57:02.515Z,6.30
2022-09-29T22:59:30.582Z,8.45
2022-09-29T23:01:58.798Z,7.68
2022-09-29T23:04:26.999Z,6.38
2022-09-29T23:06:55.394Z,7.18
2022-09-29T23:09:24.918Z,6.90
2022-09-29T23:11:55.135Z,8.50
2022-09-29T23:14:23.557Z,6.28
2022-09-29T23:16:51.808Z,8.13
2022-09-29T23:19:20.173Z,8.02
2022-09-29T23:21:48.272Z,9.43
2022-09-29T23:24:16.571Z,7.70
2022-09-29T23:26:47.324Z,6.95
2022-09-29T23:29:16.298Z,8.50
2022-09-29T23:31:48.710Z,8.13
2022-09-29T23:34:18.067Z,8.30
2022-09-29T23:36:46.079Z,6.78
2022-09-29T23:39:14.271Z,7.25
2022-09-29T23:41:44.436Z,9.02
2022-09-29T23:44:16.033Z,8.82
2022-09-29T23:46:45.410Z,8.93
2022-09-29T23:49:15.741Z,8.38
2022-09-29T23:51:45.523Z,8.43
2022-09-29T23:54:16.112Z,8.70
2022-09-29T23:56:44.276Z,7.75
2022-09-29T23:59:14.394Z,7.00
